Time;durP1;ratioP1;P1;durP2;ratioP2;P2;SDS_P1;SDS_P2;PMS_P1;PMS_P2;Temp;Humidity;BMP_temperature;BMP_pressure;BME280_temperature;BME280_humidity;BME280_pressure;Samples;Min_cycle;Max_cycle;Signal;HPM_P1;HPM_P2
2023/11/17 00:00:46;;;;;;;;;;;;;;;8.28;75.45;99627.84;4994122;28;20281;-75
2023/11/17 00:03:11;;;;;;;;;;;;;;;8.33;76.45;99619.34;4991982;28;19925;-74
2023/11/17 00:05:37;;;;;;;;;;;;;;;8.45;75.43;99615.16;4994005;28;19913;-74
2023/11/17 00:08:03;;;;;;;;;;;;;;;8.34;75.44;99620.16;4991833;28;19932;-74
2023/11/17 00:10:28;;;;;;;;;;;;;;;8.41;74.81;99618.59;4994030;28;20008;-74
2023/11/17 00:12:53;;;;;;;;;;;;;;;8.45;75.06;99616.00;4992053;28;19918;-75
2023/11/17 00:15:19;;;;;;;;;;;;;;;8.52;74.65;99615.56;4992346;28;19918;-75
2023/11/17 00:17:44;;;;;;;;;;;;;;;8.56;75.03;99605.41;4991860;28;19929;-75
2023/11/17 00:20:10;;;;;;;;;;;;;;;8.37;75.19;99614.75;4992004;28;20028;-74
2023/11/17 00:22:35;;;;;;;;;;;;;;;8.54;75.58;99602.13;4991519;28;20060;-74
2023/11/17 00:25:00;;;;;;;;;;;;;;;8.43;76.27;99601.53;4991994;28;19949;-74
2023/11/17 00:27:25;;;;;;;;;;;;;;;8.30;76.03;99597.69;4993323;28;19918;-74
2023/11/17 00:29:51;;;;;;;;;;;;;;;8.27;76.27;99596.34;4993055;28;20135;-74
2023/11/17 00:32:16;;;;;;;;;;;;;;;8.28;76.28;99597.97;4992961;28;19968;-74
2023/11/17 00:34:42;;;;;;;;;;;;;;;8.05;76.99;99593.53;4990664;28;20025;-74
2023/11/17 00:37:07;;;;;;;;;;;;;;;8.14;77.24;99586.06;4985684;28;19980;-75
2023/11/17 00:39:35;;;;;;;;;;;;;;;7.87;78.79;99582.25;4990025;28;20195;-75
2023/11/17 00:42:01;;;;;;;;;;;;;;;7.74;79.94;99583.94;4993293;28;20355;-74
2023/11/17 00:44:26;;;;;;;;;;;;;;;7.96;78.53;99594.31;4992301;28;19958;-74
2023/11/17 00:46:53;;;;;;;;;;;;;;;7.98;78.75;99593.97;4993151;28;19918;-74
2023/11/17 00:49:19;;;;;;;;;;;;;;;7.89;78.61;99596.69;4993210;28;20366;-74
2023/11/17 00:51:45;;;;;;;;;;;;;;;7.89;79.39;99593.06;4993072;28;19914;-74
2023/11/17 00:54:10;;;;;;;;;;;;;;;7.90;79.29;99600.28;4990122;28;19918;-75
2023/11/17 00:56:35;;;;;;;;;;;;;;;7.96;79.72;99576.75;4992865;28;20000;-75
2023/11/17 00:59:01;;;;;;;;;;;;;;;7.92;79.84;99575.75;4992027;28;19914;-74
2023/11/17 01:01:27;;;;;;;;;;;;;;;7.93;78.99;99572.63;4993054;28;19914;-74
2023/11/17 01:03:52;;;;;;;;;;;;;;;7.98;79.03;99574.47;4992119;28;19921;-75
2023/11/17 01:06:17;;;;;;;;;;;;;;;8.07;78.94;99568.97;4992972;28;19937;-75
2023/11/17 01:08:42;;;;;;;;;;;;;;;8.16;77.84;99569.88;4990986;28;20068;-74
2023/11/17 01:11:11;;;;;;;;;;;;;;;8.00;76.87;99561.06;4980715;28;19918;-74
2023/11/17 01:13:37;;;;;;;;;;;;;;;7.99;77.48;99560.25;4975903;28;20016;-75
2023/11/17 01:16:02;;;;;;;;;;;;;;;7.85;78.43;99549.13;4991320;28;19961;-75
2023/11/17 01:18:28;;;;;;;;;;;;;;;7.97;77.83;99542.19;4990578;28;20016;-74
2023/11/17 01:20:53;;;;;;;;;;;;;;;7.93;78.03;99530.03;4990946;28;20316;-74
2023/11/17 01:23:18;;;;;;;;;;;;;;;7.88;78.81;99517.06;4991552;28;19917;-75
2023/11/17 01:25:43;;;;;;;;;;;;;;;7.91;77.86;99513.63;4992349;28;19918;-75
2023/11/17 01:28:09;;;;;;;;;;;;;;;8.00;77.14;99511.75;4991123;28;19921;-74
2023/11/17 01:30:34;;;;;;;;;;;;;;;8.10;77.15;99515.44;4992216;28;19924;-74
2023/11/17 01:33:00;;;;;;;;;;;;;;;7.96;77.60;99507.13;4992259;28;20404;-74
2023/11/17 01:35:27;;;;;;;;;;;;;;;8.04;77.50;99497.19;4981654;28;19976;-74
2023/11/17 01:37:52;;;;;;;;;;;;;;;7.97;78.61;99492.06;4990929;28;19926;-74
2023/11/17 01:40:19;;;;;;;;;;;;;;;7.89;79.31;99502.00;4990680;28;19917;-74
2023/11/17 01:42:45;;;;;;;;;;;;;;;7.67;79.66;99523.09;4992038;28;20005;-74
2023/11/17 01:45:10;;;;;;;;;;;;;;;7.16;81.90;99538.97;4991360;28;19973;-74
2023/11/17 01:47:36;;;;;;;;;;;;;;;7.23;81.89;99536.63;4991554;28;19918;-75
2023/11/17 01:50:02;;;;;;;;;;;;;;;7.31;81.21;99523.91;4991929;28;19925;-74
2023/11/17 01:52:28;;;;;;;;;;;;;;;7.48;81.07;99523.28;4987643;28;19949;-74
2023/11/17 01:54:55;;;;;;;;;;;;;;;7.52;80.61;99513.16;4987889;28;19965;-74
2023/11/17 01:57:21;;;;;;;;;;;;;;;7.71;80.79;99512.97;4992246;28;20390;-74
2023/11/17 01:59:47;;;;;;;;;;;;;;;7.64;79.77;99512.63;4991794;28;19960;-74
2023/11/17 02:02:12;;;;;;;;;;;;;;;7.67;80.57;99516.75;4990476;28;20087;-74
2023/11/17 02:04:37;;;;;;;;;;;;;;;7.69;80.11;99520.84;4991355;28;19992;-74
2023/11/17 02:07:16;;;;;;;;;;;;;;;7.42;81.09;99525.34;4990870;28;19956;-74
2023/11/17 02:10:06;;;;;;;;;;;;;;;7.47;80.70;99515.22;4987318;28;19918;-75
2023/11/17 02:12:45;;;;;;;;;;;;;;;7.60;80.97;99494.88;4964298;28;20111;-74
2023/11/17 02:15:14;;;;;;;;;;;;;;;7.32;82.52;99472.69;4986521;28;19918;-74
2023/11/17 02:17:42;;;;;;;;;;;;;;;7.21;83.04;99463.78;4992064;28;20009;-74
2023/11/17 02:20:11;;;;;;;;;;;;;;;7.27;82.88;99470.03;4990804;28;20395;-74
2023/11/17 02:22:47;;;;;;;;;;;;;;;7.38;81.83;99470.63;4992104;28;19914;-74
2023/11/17 02:25:19;;;;;;;;;;;;;;;7.41;81.90;99479.19;4991230;28;19928;-74
2023/11/17 02:27:50;;;;;;;;;;;;;;;7.31;82.66;99479.41;4974323;28;19918;-74
2023/11/17 02:30:19;;;;;;;;;;;;;;;7.21;82.56;99471.28;4973308;28;20312;-74
2023/11/17 02:32:48;;;;;;;;;;;;;;;7.14;83.11;99486.44;4985368;28;20304;-75
2023/11/17 02:35:15;;;;;;;;;;;;;;;7.04;83.77;99497.78;4990031;28;20000;-74
2023/11/17 02:37:41;;;;;;;;;;;;;;;7.00;84.36;99488.44;4990773;28;19976;-74
2023/11/17 02:40:18;;;;;;;;;;;;;;;7.15;83.27;99474.19;4993576;28;20351;-74
2023/11/17 02:42:44;;;;;;;;;;;;;;;7.25;82.99;99464.78;4983766;28;19949;-74
2023/11/17 02:45:10;;;;;;;;;;;;;;;7.28;81.35;99466.13;4994240;28;19968;-75
2023/11/17 02:47:35;;;;;;;;;;;;;;;7.37;81.63;99464.25;4993810;28;19948;-74
2023/11/17 02:50:01;;;;;;;;;;;;;;;7.40;81.64;99452.47;4994836;28;19918;-74
2023/11/17 02:52:42;;;;;;;;;;;;;;;7.52;80.41;99428.84;4995400;28;20338;-74
2023/11/17 02:55:10;;;;;;;;;;;;;;;7.50;80.44;99426.34;4994014;28;19917;-75
2023/11/17 02:57:36;;;;;;;;;;;;;;;7.03;81.46;99468.34;4988770;28;20385;-74
2023/11/17 03:00:03;;;;;;;;;;;;;;;6.32;86.38;99461.97;4991004;28;19925;-74
2023/11/17 03:02:29;;;;;;;;;;;;;;;6.77;86.43;99443.84;4994911;28;19924;-74
2023/11/17 03:04:54;;;;;;;;;;;;;;;6.76;86.29;99427.47;4994082;28;19917;-75
2023/11/17 03:07:20;;;;;;;;;;;;;;;6.76;86.58;99421.91;4995187;28;19945;-75
2023/11/17 03:09:45;;;;;;;;;;;;;;;6.86;85.26;99425.28;4994437;28;19969;-75
2023/11/17 03:12:10;;;;;;;;;;;;;;;6.84;85.39;99426.75;4994926;28;19918;-75
2023/11/17 03:14:39;;;;;;;;;;;;;;;6.81;85.21;99430.97;4992400;28;19924;-74
2023/11/17 03:17:05;;;;;;;;;;;;;;;6.64;86.22;99425.25;4989393;28;20111;-74
2023/11/17 03:19:30;;;;;;;;;;;;;;;6.93;85.08;99424.06;4994648;28;20453;-75
2023/11/17 03:21:57;;;;;;;;;;;;;;;6.95;85.67;99416.22;4994693;28;19918;-75
2023/11/17 03:24:24;;;;;;;;;;;;;;;6.53;86.32;99417.09;4993874;28;19922;-75
2023/11/17 03:26:54;;;;;;;;;;;;;;;6.51;86.79;99422.13;4993295;28;19918;-75
2023/11/17 03:29:20;;;;;;;;;;;;;;;6.66;87.79;99404.31;4992770;28;19918;-75
2023/11/17 03:31:52;;;;;;;;;;;;;;;6.52;88.79;99397.94;4994286;28;19922;-75
2023/11/17 03:34:28;;;;;;;;;;;;;;;6.32;88.73;99409.16;4988478;28;19925;-75
2023/11/17 03:36:56;;;;;;;;;;;;;;;6.26;88.55;99406.81;4990622;28;19928;-75
2023/11/17 03:39:25;;;;;;;;;;;;;;;6.43;89.36;99411.75;4993062;28;20348;-74
2023/11/17 03:41:52;;;;;;;;;;;;;;;6.17;90.38;99387.25;4991473;28;19925;-74
2023/11/17 03:44:17;;;;;;;;;;;;;;;6.23;91.43;99385.22;4993078;28;20005;-75
2023/11/17 03:46:46;;;;;;;;;;;;;;;6.45;90.02;99382.50;4993965;28;20008;-75
2023/11/17 03:49:11;;;;;;;;;;;;;;;6.55;89.19;99367.59;4994091;28;19914;-75
2023/11/17 03:51:37;;;;;;;;;;;;;;;6.44;89.49;99377.28;4987953;28;19922;-75
2023/11/17 03:54:05;;;;;;;;;;;;;;;6.53;89.99;99372.66;4993280;28;19933;-75
2023/11/17 03:56:30;;;;;;;;;;;;;;;6.40;89.23;99381.81;4993735;28;19914;-75
2023/11/17 03:58:56;;;;;;;;;;;;;;;6.50;88.55;99378.00;4993749;28;20006;-75
2023/11/17 04:01:21;;;;;;;;;;;;;;;6.65;88.13;99368.50;4990813;28;19921;-75
2023/11/17 04:03:46;;;;;;;;;;;;;;;6.67;88.01;99371.78;4991804;28;19924;-75
2023/11/17 04:06:12;;;;;;;;;;;;;;;6.57;88.47;99372.81;4994368;28;20348;-75
2023/11/17 04:08:37;;;;;;;;;;;;;;;6.31;89.63;99368.63;4992194;28;19972;-75
2023/11/17 04:11:03;;;;;;;;;;;;;;;6.57;89.39;99379.22;4974567;28;19953;-75
2023/11/17 04:13:31;;;;;;;;;;;;;;;6.46;88.68;99394.44;4974529;28;19920;-75
2023/11/17 04:15:56;;;;;;;;;;;;;;;5.86;92.78;99393.34;4989995;28;19944;-75
2023/11/17 04:18:22;;;;;;;;;;;;;;;5.76;94.96;99400.72;4993801;28;19929;-74
2023/11/17 04:20:48;;;;;;;;;;;;;;;5.86;93.89;99404.44;4992307;28;19988;-74
2023/11/17 04:23:13;;;;;;;;;;;;;;;5.66;95.80;99398.13;4992374;28;19914;-75
2023/11/17 04:25:38;;;;;;;;;;;;;;;5.81;94.98;99396.22;4987224;28;19921;-75
2023/11/17 04:28:04;;;;;;;;;;;;;;;5.63;95.23;99395.94;4972999;28;19918;-74
2023/11/17 04:30:29;;;;;;;;;;;;;;;5.31;97.75;99383.75;4977291;28;20009;-74
2023/11/17 04:32:55;;;;;;;;;;;;;;;5.75;97.42;99370.50;4991469;28;19918;-74
2023/11/17 04:35:20;;;;;;;;;;;;;;;5.86;96.22;99371.13;4992277;28;19918;-75
2023/11/17 04:37:46;;;;;;;;;;;;;;;6.00;95.53;99371.97;4992897;28;19928;-75
2023/11/17 04:40:12;;;;;;;;;;;;;;;6.00;94.83;99383.06;4991756;28;19918;-75
2023/11/17 04:42:40;;;;;;;;;;;;;;;6.00;94.79;99382.28;4988139;28;19918;-75
2023/11/17 04:45:07;;;;;;;;;;;;;;;6.25;93.13;99386.53;4982688;28;19984;-75
2023/11/17 04:47:32;;;;;;;;;;;;;;;6.26;91.97;99385.38;4993116;28;19918;-75
2023/11/17 04:49:57;;;;;;;;;;;;;;;6.22;92.23;99376.03;4993045;28;19924;-75
2023/11/17 04:52:23;;;;;;;;;;;;;;;5.96;93.04;99384.84;4992778;28;19918;-75
2023/11/17 04:54:48;;;;;;;;;;;;;;;5.36;96.01;99386.41;4991923;28;19917;-75
2023/11/17 04:57:14;;;;;;;;;;;;;;;5.11;99.33;99380.16;4992860;28;20408;-75
2023/11/17 04:59:39;;;;;;;;;;;;;;;5.38;98.88;99391.66;4987421;28;19918;-75
2023/11/17 05:02:05;;;;;;;;;;;;;;;5.55;97.96;99391.09;4992651;28;20309;-75
2023/11/17 05:04:30;;;;;;;;;;;;;;;5.09;99.79;99382.41;4991986;28;20305;-75
2023/11/17 05:06:56;;;;;;;;;;;;;;;4.95;100.00;99376.78;4991337;28;19918;-75
2023/11/17 05:09:21;;;;;;;;;;;;;;;5.20;100.00;99370.03;4991274;28;19918;-75
2023/11/17 05:11:46;;;;;;;;;;;;;;;5.51;99.32;99365.09;4991024;28;19921;-75
2023/11/17 05:14:12;;;;;;;;;;;;;;;5.45;97.90;99373.50;4991520;28;20403;-75
2023/11/17 05:16:37;;;;;;;;;;;;;;;5.85;97.16;99375.03;4990695;28;20001;-75
2023/11/17 05:19:06;;;;;;;;;;;;;;;6.00;95.75;99374.75;4991213;28;19925;-75
2023/11/17 05:21:32;;;;;;;;;;;;;;;6.06;94.77;99374.69;4992502;28;19917;-75
2023/11/17 05:23:58;;;;;;;;;;;;;;;6.16;93.72;99369.75;4992674;28;19914;-75
2023/11/17 05:26:23;;;;;;;;;;;;;;;6.03;92.98;99363.09;4990409;28;19918;-75
2023/11/17 05:28:48;;;;;;;;;;;;;;;5.95;92.09;99372.06;4990832;28;19917;-75
2023/11/17 05:31:14;;;;;;;;;;;;;;;5.59;94.00;99373.53;4991860;28;20388;-75
2023/11/17 05:33:39;;;;;;;;;;;;;;;5.64;94.41;99360.72;4990466;28;19976;-75
2023/11/17 05:36:04;;;;;;;;;;;;;;;5.93;93.28;99362.41;4990904;28;19953;-75
2023/11/17 05:38:30;;;;;;;;;;;;;;;5.98;92.21;99357.56;4992287;28;19972;-75
2023/11/17 05:40:57;;;;;;;;;;;;;;;5.59;93.78;99372.72;4992104;28;19977;-75
2023/11/17 05:43:23;;;;;;;;;;;;;;;5.42;94.96;99367.75;4992302;28;20008;-75
2023/11/17 05:45:50;;;;;;;;;;;;;;;5.52;95.76;99369.50;4991141;28;19921;-76
2023/11/17 05:48:19;;;;;;;;;;;;;;;5.57;95.64;99369.44;4991168;28;20395;-75
2023/11/17 05:50:44;;;;;;;;;;;;;;;5.43;95.82;99367.44;4992031;28;19922;-75
2023/11/17 05:53:10;;;;;;;;;;;;;;;5.29;96.50;99364.63;4991095;28;20448;-75
2023/11/17 05:55:35;;;;;;;;;;;;;;;5.28;97.45;99362.13;4991602;28;19918;-75
2023/11/17 05:58:00;;;;;;;;;;;;;;;5.21;97.08;99379.16;4991571;28;20388;-75
2023/11/17 06:00:27;;;;;;;;;;;;;;;5.30;97.33;99377.34;4990551;28;20421;-75
2023/11/17 06:02:53;;;;;;;;;;;;;;;5.26;98.02;99381.03;4984684;28;19929;-76
2023/11/17 06:05:19;;;;;;;;;;;;;;;4.98;99.97;99375.34;4988423;28;20020;-75
2023/11/17 06:07:44;;;;;;;;;;;;;;;4.89;100.00;99372.44;4986463;28;20031;-76
2023/11/17 06:10:10;;;;;;;;;;;;;;;4.95;100.00;99364.84;4992729;28;19918;-76
2023/11/17 06:12:36;;;;;;;;;;;;;;;4.98;100.00;99358.72;4994434;28;19918;-75
2023/11/17 06:15:02;;;;;;;;;;;;;;;5.03;100.00;99367.78;4993580;28;19917;-75
2023/11/17 06:17:27;;;;;;;;;;;;;;;5.03;100.00;99361.41;4993865;28;19953;-75
2023/11/17 06:19:53;;;;;;;;;;;;;;;5.32;99.31;99341.00;4988398;28;19957;-75
2023/11/17 06:22:18;;;;;;;;;;;;;;;5.50;98.07;99341.25;4992976;28;19913;-76
2023/11/17 06:24:43;;;;;;;;;;;;;;;5.59;97.55;99339.44;4995578;28;19939;-75
2023/11/17 06:27:10;;;;;;;;;;;;;;;5.55;97.24;99327.28;4991502;28;19921;-75
2023/11/17 06:29:36;;;;;;;;;;;;;;;5.73;96.56;99331.09;4990990;28;19917;-75
2023/11/17 06:32:02;;;;;;;;;;;;;;;5.43;96.71;99348.03;4992426;28;19972;-75
2023/11/17 06:34:27;;;;;;;;;;;;;;;5.28;98.19;99357.41;4994383;28;19914;-75
2023/11/17 06:36:53;;;;;;;;;;;;;;;5.51;97.90;99331.78;4980506;28;20379;-77
2023/11/17 06:39:18;;;;;;;;;;;;;;;5.69;96.95;99317.03;4986894;28;19918;-78
2023/11/17 06:41:50;;;;;;;;;;;;;;;5.74;96.20;99321.69;4987687;28;19918;-75
2023/11/17 06:44:19;;;;;;;;;;;;;;;5.92;96.56;99306.06;4992318;28;20012;-73
2023/11/17 06:46:45;;;;;;;;;;;;;;;5.95;96.25;99321.28;4999549;28;19924;-73
2023/11/17 06:49:12;;;;;;;;;;;;;;;6.06;96.34;99321.94;4991334;28;19926;-72
2023/11/17 06:51:44;;;;;;;;;;;;;;;6.15;96.51;99325.63;4993395;28;19917;-73
2023/11/17 06:54:11;;;;;;;;;;;;;;;6.10;96.15;99325.72;4993087;28;19922;-73
2023/11/17 06:56:43;;;;;;;;;;;;;;;5.77;97.91;99340.50;4992793;28;19917;-73
2023/11/17 06:59:11;;;;;;;;;;;;;;;5.82;98.08;99343.16;4990252;28;19914;-72
2023/11/17 07:01:37;;;;;;;;;;;;;;;5.90;96.53;99336.06;4991856;28;20355;-69
2023/11/17 07:04:05;;;;;;;;;;;;;;;6.07;95.22;99331.91;4992808;28;19929;-71
2023/11/17 07:06:31;;;;;;;;;;;;;;;6.14;95.99;99323.97;4993315;28;19914;-72
2023/11/17 07:08:57;;;;;;;;;;;;;;;6.19;92.15;99323.88;4991466;28;20012;-73
2023/11/17 07:11:24;;;;;;;;;;;;;;;6.07;91.72;99309.69;4977615;28;19918;-72
2023/11/17 07:13:49;;;;;;;;;;;;;;;6.08;93.22;99303.81;4981771;28;19922;-74
2023/11/17 07:16:18;;;;;;;;;;;;;;;6.11;93.61;99294.06;4990507;28;20426;-72
2023/11/17 07:18:43;;;;;;;;;;;;;;;6.20;91.19;99303.31;4983300;28;19929;-72
2023/11/17 07:21:08;;;;;;;;;;;;;;;6.37;91.40;99299.06;4993971;28;19917;-73
2023/11/17 07:23:34;;;;;;;;;;;;;;;6.53;91.32;99299.56;4992769;28;19929;-73
2023/11/17 07:25:59;;;;;;;;;;;;;;;6.71;90.86;99283.84;4991876;28;19945;-74
2023/11/17 07:28:25;;;;;;;;;;;;;;;6.70;90.71;99283.06;4993816;28;20319;-73
2023/11/17 07:30:51;;;;;;;;;;;;;;;6.74;90.04;99277.66;4989909;28;20352;-73
2023/11/17 07:33:18;;;;;;;;;;;;;;;6.91;88.45;99265.06;4991251;28;20392;-74
2023/11/17 07:35:44;;;;;;;;;;;;;;;6.84;88.53;99266.31;4990254;28;19913;-73
2023/11/17 07:38:09;;;;;;;;;;;;;;;6.91;87.94;99268.66;4990797;28;19929;-73
2023/11/17 07:40:34;;;;;;;;;;;;;;;6.84;88.03;99269.09;4991656;28;19914;-71
2023/11/17 07:42:59;;;;;;;;;;;;;;;6.77;87.43;99268.72;4988046;28;19918;-73
2023/11/17 07:45:25;;;;;;;;;;;;;;;6.73;88.67;99276.84;4990767;28;19949;-74
2023/11/17 07:47:51;;;;;;;;;;;;;;;6.54;90.19;99267.84;4992328;28;19922;-72
2023/11/17 07:50:19;;;;;;;;;;;;;;;6.54;90.38;99265.91;4993781;28;20008;-73
2023/11/17 07:52:44;;;;;;;;;;;;;;;6.49;90.85;99266.00;4984838;28;19970;-72
2023/11/17 07:55:13;;;;;;;;;;;;;;;6.63;91.17;99257.63;4989540;28;19918;-72
2023/11/17 07:57:38;;;;;;;;;;;;;;;6.51;92.22;99255.41;4991593;28;20043;-72
2023/11/17 08:00:17;;;;;;;;;;;;;;;6.74;91.07;99258.22;4991750;28;20119;-74
2023/11/17 08:02:42;;;;;;;;;;;;;;;6.66;91.66;99270.09;4993172;28;19914;-73
2023/11/17 08:05:10;;;;;;;;;;;;;;;6.80;92.73;99256.97;4991007;28;20407;-74
2023/11/17 08:07:35;;;;;;;;;;;;;;;6.84;92.15;99249.63;4992394;28;19925;-72
2023/11/17 08:10:00;;;;;;;;;;;;;;;6.93;91.89;99257.22;4990813;28;19925;-70
2023/11/17 08:12:26;;;;;;;;;;;;;;;6.89;91.26;99257.03;4992777;28;19921;-70
2023/11/17 08:14:54;;;;;;;;;;;;;;;7.10;90.22;99267.66;4991629;28;19969;-71
2023/11/17 08:17:22;;;;;;;;;;;;;;;6.98;90.81;99249.56;4990356;28;19937;-74
2023/11/17 08:19:47;;;;;;;;;;;;;;;7.11;89.77;99245.06;4993463;28;19914;-71
2023/11/17 08:22:13;;;;;;;;;;;;;;;7.05;88.87;99249.13;4988056;28;20033;-73
2023/11/17 08:24:39;;;;;;;;;;;;;;;7.35;90.08;99252.25;4991951;28;19920;-73
2023/11/17 08:27:05;;;;;;;;;;;;;;;7.56;89.71;99248.91;4992375;28;19917;-72
2023/11/17 08:29:31;;;;;;;;;;;;;;;7.86;89.45;99249.22;4988679;28;19940;-72
2023/11/17 08:31:56;;;;;;;;;;;;;;;7.97;86.42;99245.00;4993168;28;20448;-74
2023/11/17 08:34:24;;;;;;;;;;;;;;;7.90;85.31;99227.09;4991655;28;20277;-74
2023/11/17 08:36:50;;;;;;;;;;;;;;;8.06;84.11;99213.53;4992585;28;19913;-74
2023/11/17 08:39:27;;;;;;;;;;;;;;;8.16;82.81;99207.66;4992779;28;19948;-73
2023/11/17 08:41:56;;;;;;;;;;;;;;;7.95;82.60;99196.31;4991789;28;19924;-71
2023/11/17 08:44:22;;;;;;;;;;;;;;;8.22;82.60;99191.59;4981165;28;20409;-71
2023/11/17 08:46:49;;;;;;;;;;;;;;;8.48;80.98;99207.53;4985798;28;19942;-71
2023/11/17 08:49:15;;;;;;;;;;;;;;;8.78;79.65;99216.91;4991278;28;20389;-72
2023/11/17 08:51:41;;;;;;;;;;;;;;;8.82;78.46;99217.91;4987963;28;20345;-74
2023/11/17 08:54:07;;;;;;;;;;;;;;;8.97;77.92;99212.97;4991232;28;20024;-76
2023/11/17 08:56:34;;;;;;;;;;;;;;;8.93;78.25;99212.78;4992458;28;20420;-74
2023/11/17 08:58:59;;;;;;;;;;;;;;;9.31;75.79;99188.09;4990694;28;19964;-76
2023/11/17 09:01:24;;;;;;;;;;;;;;;9.78;74.59;99195.63;4992238;28;20400;-73
2023/11/17 09:03:50;;;;;;;;;;;;;;;9.85;74.08;99195.91;4988976;28;19917;-74
2023/11/17 09:06:15;;;;;;;;;;;;;;;10.10;72.05;99185.72;4988570;28;19984;-72
2023/11/17 09:08:40;;;;;;;;;;;;;;;10.22;70.75;99173.00;4993388;28;20419;-72
2023/11/17 09:11:08;;;;;;;;;;;;;;;10.43;69.62;99156.25;4995632;28;20404;-74
2023/11/17 09:13:33;;;;;;;;;;;;;;;10.74;68.51;99163.41;4985613;28;19921;-73
2023/11/17 09:15:59;;;;;;;;;;;;;;;11.01;67.51;99161.16;4989367;28;19967;-72
2023/11/17 09:18:24;;;;;;;;;;;;;;;11.14;64.66;99149.97;4991059;28;19982;-74
2023/11/17 09:20:49;;;;;;;;;;;;;;;11.24;65.40;99146.72;4991867;28;20359;-73
2023/11/17 09:23:14;;;;;;;;;;;;;;;11.19;65.27;99144.97;4991506;28;19925;-74
2023/11/17 09:25:40;;;;;;;;;;;;;;;11.18;65.24;99132.13;4991427;28;19952;-76
2023/11/17 09:28:06;;;;;;;;;;;;;;;10.85;63.69;99137.75;4991541;28;19921;-72
2023/11/17 09:30:32;;;;;;;;;;;;;;;10.94;64.85;99139.31;4989880;28;19925;-72
2023/11/17 09:32:58;;;;;;;;;;;;;;;11.32;63.63;99129.00;4989148;28;20439;-74
2023/11/17 09:35:27;;;;;;;;;;;;;;;11.54;62.80;99117.69;4987209;28;19918;-73
2023/11/17 09:37:58;;;;;;;;;;;;;;;11.40;62.30;99115.25;5002883;28;19925;-73
2023/11/17 09:40:24;;;;;;;;;;;;;;;11.13;63.59;99103.56;4988375;28;20422;-72
2023/11/17 09:42:51;;;;;;;;;;;;;;;10.94;64.38;99099.31;4989233;28;19925;-72
2023/11/17 09:45:32;;;;;;;;;;;;;;;10.94;63.86;99102.13;4991315;28;19922;-72
2023/11/17 09:48:04;;;;;;;;;;;;;;;11.02;62.74;99104.00;4990460;28;19918;-73
2023/11/17 09:50:30;;;;;;;;;;;;;;;10.37;64.97;99098.84;4989353;28;19969;-73
2023/11/17 09:52:57;;;;;;;;;;;;;;;10.50;65.15;99102.56;4990179;28;19953;-73
2023/11/17 09:55:27;;;;;;;;;;;;;;;10.32;66.02;99096.28;4985322;28;20388;-73
2023/11/17 09:57:54;;;;;;;;;;;;;;;10.05;68.51;99096.50;4998959;28;19937;-72
2023/11/17 10:00:20;;;;;;;;;;;;;;;10.07;67.91;99102.56;4987833;28;20423;-73
2023/11/17 10:02:51;;;;;;;;;;;;;;;10.21;67.53;99093.09;4991657;28;19977;-73
2023/11/17 10:05:17;;;;;;;;;;;;;;;9.92;69.03;99092.00;4988607;28;19968;-73
2023/11/17 10:07:44;;;;;;;;;;;;;;;9.53;68.87;99086.50;4988712;28;20371;-73
2023/11/17 10:10:14;;;;;;;;;;;;;;;9.69;69.30;99087.56;4988492;28;19918;-73
2023/11/17 10:12:40;;;;;;;;;;;;;;;9.81;68.47;99083.22;4987370;28;19918;-74
2023/11/17 10:15:08;;;;;;;;;;;;;;;9.92;68.05;99081.66;4982539;28;19929;-73
2023/11/17 10:17:34;;;;;;;;;;;;;;;10.33;67.98;99067.16;4985717;28;20430;-73
2023/11/17 10:19:59;;;;;;;;;;;;;;;10.63;66.72;99058.69;4987120;28;20016;-74
2023/11/17 10:22:28;;;;;;;;;;;;;;;10.79;65.37;99056.84;4974460;28;19930;-73
2023/11/17 10:24:53;;;;;;;;;;;;;;;10.91;64.80;99055.25;4983052;28;19925;-73
2023/11/17 10:27:20;;;;;;;;;;;;;;;10.93;64.98;99059.34;4987652;28;19969;-73
2023/11/17 10:29:48;;;;;;;;;;;;;;;10.95;64.59;99061.78;4987639;28;20016;-73
2023/11/17 10:32:18;;;;;;;;;;;;;;;11.17;64.36;99048.50;4986490;28;19976;-73
2023/11/17 10:35:03;;;;;;;;;;;;;;;10.84;63.95;99043.81;4986587;28;19938;-73
2023/11/17 10:37:35;;;;;;;;;;;;;;;10.87;65.05;99026.34;4987016;28;19921;-74
2023/11/17 10:40:00;;;;;;;;;;;;;;;10.89;64.74;99007.22;4981624;28;19918;-74
2023/11/17 10:42:25;;;;;;;;;;;;;;;11.33;64.00;99001.03;4987664;28;19921;-73
2023/11/17 10:44:51;;;;;;;;;;;;;;;11.48;63.77;99000.28;4986168;28;20250;-73
2023/11/17 10:47:17;;;;;;;;;;;;;;;11.62;63.30;98988.72;4987327;28;20377;-73
2023/11/17 10:49:42;;;;;;;;;;;;;;;11.70;62.16;98986.94;4988135;28;19918;-72
2023/11/17 10:52:09;;;;;;;;;;;;;;;11.86;61.83;98989.00;4989359;28;19914;-73
2023/11/17 10:54:44;;;;;;;;;;;;;;;11.94;60.89;98983.25;4981874;28;20026;-73
2023/11/17 10:57:10;;;;;;;;;;;;;;;12.06;60.54;98990.00;4986829;28;19925;-73
2023/11/17 10:59:35;;;;;;;;;;;;;;;11.98;60.76;98971.34;4991659;28;19921;-73
2023/11/17 11:02:01;;;;;;;;;;;;;;;12.13;60.28;98955.78;4988037;28;19929;-73
2023/11/17 11:04:26;;;;;;;;;;;;;;;12.13;59.48;98950.16;4989038;28;19925;-73
2023/11/17 11:07:01;;;;;;;;;;;;;;;12.30;59.87;98946.19;4991024;28;20112;-73
2023/11/17 11:09:36;;;;;;;;;;;;;;;12.23;58.68;98938.41;4987763;28;19929;-74
2023/11/17 11:12:03;;;;;;;;;;;;;;;12.11;60.05;98938.47;4986341;28;19922;-73
2023/11/17 11:14:29;;;;;;;;;;;;;;;12.42;58.95;98946.09;4984367;28;19921;-73
2023/11/17 11:16:54;;;;;;;;;;;;;;;12.17;59.25;98948.25;4988664;28;20367;-73
2023/11/17 11:19:20;;;;;;;;;;;;;;;12.03;61.79;98934.66;4989140;28;19928;-73
2023/11/17 11:21:48;;;;;;;;;;;;;;;12.60;62.25;98928.94;4986540;28;19917;-73
2023/11/17 11:24:14;;;;;;;;;;;;;;;12.79;60.21;98936.63;4986414;28;20320;-73
2023/11/17 11:26:39;;;;;;;;;;;;;;;12.54;60.24;98927.56;4990667;28;19943;-73
2023/11/17 11:29:05;;;;;;;;;;;;;;;12.41;61.07;98924.84;4985894;28;20443;-73
2023/11/17 11:31:31;;;;;;;;;;;;;;;12.81;59.01;98911.03;4989865;28;20569;-73
2023/11/17 11:34:01;;;;;;;;;;;;;;;12.96;57.88;98910.16;4985640;28;20011;-73
2023/11/17 11:36:27;;;;;;;;;;;;;;;13.21;57.77;98907.13;4987808;28;19965;-73
2023/11/17 11:38:52;;;;;;;;;;;;;;;13.37;58.52;98901.47;4991519;28;20074;-73
2023/11/17 11:41:22;;;;;;;;;;;;;;;13.40;56.95;98911.97;4992699;28;20428;-73
2023/11/17 11:43:49;;;;;;;;;;;;;;;13.55;55.87;98899.06;4991121;28;20015;-73
2023/11/17 11:46:16;;;;;;;;;;;;;;;13.61;56.99;98899.59;4987038;28;19929;-73
2023/11/17 11:48:43;;;;;;;;;;;;;;;13.59;55.70;98896.34;4987805;28;19937;-73
2023/11/17 11:51:10;;;;;;;;;;;;;;;13.59;56.07;98888.72;4987560;28;19924;-73
2023/11/17 11:54:01;;;;;;;;;;;;;;;13.59;56.71;98876.66;4988741;28;20357;-73
2023/11/17 11:56:34;;;;;;;;;;;;;;;13.75;57.07;98880.19;4999280;28;20031;-74
2023/11/17 11:58:59;;;;;;;;;;;;;;;13.98;56.27;98892.66;4992394;28;19972;-73
2023/11/17 12:01:32;;;;;;;;;;;;;;;13.98;55.60;98887.88;4991501;28;19961;-73
2023/11/17 12:03:58;;;;;;;;;;;;;;;13.97;55.98;98886.25;4989274;28;19924;-73
2023/11/17 12:06:25;;;;;;;;;;;;;;;13.71;55.92;98884.94;4993529;28;20412;-72
2023/11/17 12:08:53;;;;;;;;;;;;;;;13.93;54.74;98896.59;4987992;28;19918;-73
2023/11/17 12:11:19;;;;;;;;;;;;;;;13.82;55.28;98893.59;4991436;28;19928;-73
2023/11/17 12:13:47;;;;;;;;;;;;;;;13.99;55.43;98878.25;4990377;28;19918;-73
2023/11/17 12:16:16;;;;;;;;;;;;;;;13.91;55.88;98870.84;4993503;28;19929;-73
2023/11/17 12:18:43;;;;;;;;;;;;;;;13.79;56.00;98849.34;4990938;28;19922;-74
2023/11/17 12:21:19;;;;;;;;;;;;;;;13.89;55.65;98836.69;4992858;28;19921;-73
2023/11/17 12:23:45;;;;;;;;;;;;;;;13.69;55.54;98852.78;4980173;28;19921;-73
2023/11/17 12:26:10;;;;;;;;;;;;;;;13.50;55.66;98851.59;4987609;28;19918;-73
2023/11/17 12:28:36;;;;;;;;;;;;;;;13.54;55.80;98841.25;4991615;28;19921;-73
2023/11/17 12:31:03;;;;;;;;;;;;;;;13.71;55.77;98847.59;4992165;28;19917;-73
2023/11/17 12:33:29;;;;;;;;;;;;;;;13.60;55.46;98848.19;4989637;28;19917;-73
2023/11/17 12:35:55;;;;;;;;;;;;;;;13.73;56.24;98839.59;4990696;28;20075;-74
2023/11/17 12:38:21;;;;;;;;;;;;;;;13.81;56.04;98835.75;4991090;28;19918;-74
2023/11/17 12:40:57;;;;;;;;;;;;;;;13.87;55.60;98825.81;4990360;28;20009;-73
2023/11/17 12:43:22;;;;;;;;;;;;;;;13.82;54.82;98837.38;4992072;28;19918;-73
2023/11/17 12:45:48;;;;;;;;;;;;;;;14.01;55.21;98849.78;4990001;28;19922;-73
2023/11/17 12:48:17;;;;;;;;;;;;;;;13.66;54.71;98839.47;4992518;28;19921;-73
2023/11/17 12:50:42;;;;;;;;;;;;;;;13.62;56.60;98831.75;4990921;28;20384;-73